Wheeling, Indiana
Current Conditions -  °F | °C
As of 8:53 AM on Monday 22 Dec 2014 (Local Time) from KMIE Reporting Station
Overcast Overcast  
Wind Chill: 27°   Ceiling: 3800
Heat Index: 34°   Visibility: 7mi
Dew Point: 28°   Wind: 8mph
Humidity: 79%   Direction: 140°SE
Pressure: 29.98"   Gusts: NA
Location:  40.3233°N, 85.5202°W
Report Text: KMIE 221353Z 14007KT 7SM OVC038 01/M02 A2998 RMK AO2 SLP156 T00111022
Loading
Personal Weather Stations






























Interactive Weather Map New forecast layout! Learn more

10-Day Weather Forecast

Advertisements
Track Severe Weather on mobile